Time;durP1;ratioP1;P1;durP2;ratioP2;P2;SDS_P1;SDS_P2;PMS_P1;PMS_P2;Temp;Humidity;BMP_temperature;BMP_pressure;BME280_temperature;BME280_humidity;BME280_pressure;Samples;Min_cycle;Max_cycle;Signal;HPM_P1;HPM_P2
2023/06/05 00:01:40;;;;;;;;;;;21.30;57.80;;;;;;20839686;28;19988;-56
2023/06/05 00:11:41;;;;;;;;;;;21.10;58.90;;;;;;20838345;28;20367;-58
2023/06/05 00:21:42;;;;;;;;;;;21.00;59.70;;;;;;20838935;28;20303;-55
2023/06/05 00:31:43;;;;;;;;;;;20.90;60.00;;;;;;20838119;28;20025;-57
2023/06/05 00:41:45;;;;;;;;;;;20.80;60.60;;;;;;20837418;28;19925;-56
2023/06/05 00:51:45;;;;;;;;;;;20.70;61.20;;;;;;20834903;28;19932;-56
2023/06/05 01:01:47;;;;;;;;;;;20.60;61.50;;;;;;20836221;28;19925;-55
2023/06/05 01:11:48;;;;;;;;;;;20.40;62.00;;;;;;20835637;28;19933;-56
2023/06/05 01:21:48;;;;;;;;;;;20.40;62.50;;;;;;20834173;28;20071;-55
2023/06/05 01:31:50;;;;;;;;;;;20.30;63.30;;;;;;20833591;28;19937;-56
2023/06/05 01:41:53;;;;;;;;;;;20.30;63.40;;;;;;20832825;28;19948;-56
2023/06/05 01:51:55;;;;;;;;;;;20.40;63.30;;;;;;20832237;28;20297;-57
2023/06/05 02:01:55;;;;;;;;;;;20.40;63.20;;;;;;20831222;28;20420;-56
2023/06/05 02:11:56;;;;;;;;;;;20.40;63.20;;;;;;20831567;28;19925;-57
2023/06/05 02:21:56;;;;;;;;;;;20.30;63.90;;;;;;20830742;28;19932;-57
2023/06/05 02:31:57;;;;;;;;;;;20.20;64.70;;;;;;20830351;28;19929;-55
2023/06/05 02:41:58;;;;;;;;;;;19.90;65.50;;;;;;20829997;28;19925;-55
2023/06/05 02:51:58;;;;;;;;;;;19.90;65.50;;;;;;20829929;28;19925;-57
2023/06/05 03:01:59;;;;;;;;;;;20.00;64.50;;;;;;20829273;28;19932;-55
2023/06/05 03:12:00;;;;;;;;;;;20.00;64.50;;;;;;20829649;28;19925;-57
2023/06/05 03:22:00;;;;;;;;;;;19.90;64.80;;;;;;20843443;28;19936;-56
2023/06/05 03:32:01;;;;;;;;;;;19.80;64.80;;;;;;20842787;28;19961;-56
2023/06/05 03:42:02;;;;;;;;;;;19.80;64.80;;;;;;20841733;28;19975;-55
2023/06/05 03:52:03;;;;;;;;;;;19.70;65.20;;;;;;20841053;28;20008;-56
2023/06/05 04:02:04;;;;;;;;;;;19.60;65.70;;;;;;20838919;28;19926;-55
2023/06/05 04:12:05;;;;;;;;;;;19.60;65.90;;;;;;20838688;28;19925;-55
2023/06/05 04:22:06;;;;;;;;;;;19.60;65.80;;;;;;20837856;28;19952;-55
2023/06/05 04:32:07;;;;;;;;;;;19.50;66.30;;;;;;20838742;28;20012;-56
2023/06/05 04:42:09;;;;;;;;;;;19.40;66.80;;;;;;20837846;28;20122;-56
2023/06/05 04:52:11;;;;;;;;;;;19.40;66.70;;;;;;20837053;28;19929;-56
2023/06/05 05:02:12;;;;;;;;;;;19.30;67.20;;;;;;20836817;28;19961;-57
2023/06/05 05:12:13;;;;;;;;;;;19.20;67.40;;;;;;20835358;28;20294;-55
2023/06/05 05:22:13;;;;;;;;;;;19.20;67.20;;;;;;20835280;28;19925;-55
2023/06/05 05:32:14;;;;;;;;;;;19.20;66.20;;;;;;20834353;28;19929;-57
2023/06/05 05:42:15;;;;;;;;;;;19.20;66.00;;;;;;20832731;28;20408;-56
2023/06/05 05:52:15;;;;;;;;;;;19.30;65.30;;;;;;20831627;28;19925;-55
2023/06/05 06:02:17;;;;;;;;;;;19.30;65.40;;;;;;20831844;28;20379;-56
2023/06/05 06:12:18;;;;;;;;;;;19.30;64.70;;;;;;20831734;28;19932;-57
2023/06/05 06:22:19;;;;;;;;;;;19.40;64.70;;;;;;20829920;28;19936;-56
2023/06/05 06:32:20;;;;;;;;;;;19.50;64.30;;;;;;20829929;28;19925;-56
2023/06/05 06:42:20;;;;;;;;;;;19.70;63.90;;;;;;20829889;28;19925;-55
2023/06/05 06:52:21;;;;;;;;;;;19.80;63.90;;;;;;20842719;28;19932;-55
2023/06/05 07:02:23;;;;;;;;;;;20.30;63.10;;;;;;20845505;28;19929;-56
2023/06/05 07:12:24;;;;;;;;;;;21.00;61.20;;;;;;20843577;28;19932;-55
2023/06/05 07:22:26;;;;;;;;;;;21.70;59.10;;;;;;20843248;28;20370;-59
2023/06/05 07:32:27;;;;;;;;;;;22.20;57.70;;;;;;20842567;28;19925;-56
2023/06/05 07:42:27;;;;;;;;;;;22.80;56.70;;;;;;20843166;28;19933;-55
2023/06/05 07:52:28;;;;;;;;;;;23.30;55.00;;;;;;20840987;28;19929;-56
2023/06/05 08:02:29;;;;;;;;;;;23.30;54.70;;;;;;20840803;28;20285;-56
2023/06/05 08:12:30;;;;;;;;;;;23.70;53.80;;;;;;20841438;28;19925;-57
2023/06/05 08:22:30;;;;;;;;;;;24.00;53.30;;;;;;20839617;28;20003;-56
2023/06/05 08:32:32;;;;;;;;;;;24.20;52.70;;;;;;20839633;28;19963;-55
2023/06/05 08:42:33;;;;;;;;;;;24.30;52.50;;;;;;20839090;28;19925;-56
2023/06/05 08:52:36;;;;;;;;;;;24.20;52.50;;;;;;20837145;28;19932;-55
2023/06/05 09:02:38;;;;;;;;;;;24.40;52.00;;;;;;20837396;28;19925;-57
2023/06/05 09:12:52;;;;;;;;;;;24.50;52.20;;;;;;20835919;28;19979;-56
2023/06/05 09:22:53;;;;;;;;;;;24.80;51.80;;;;;;20834470;28;19932;-55
2023/06/05 09:32:53;;;;;;;;;;;24.90;51.20;;;;;;20834956;28;20306;-55
2023/06/05 09:42:54;;;;;;;;;;;25.10;50.40;;;;;;20833778;28;19925;-55
2023/06/05 09:52:55;;;;;;;;;;;25.30;49.80;;;;;;20833136;28;19929;-56
2023/06/05 10:02:57;;;;;;;;;;;25.50;49.40;;;;;;20832582;28;19925;-55
2023/06/05 10:12:58;;;;;;;;;;;25.80;47.40;;;;;;20830705;28;19967;-56
2023/06/05 10:22:59;;;;;;;;;;;25.80;47.60;;;;;;20830487;28;19929;-56
2023/06/05 10:33:03;;;;;;;;;;;25.90;46.70;;;;;;20831050;28;19925;-56
2023/06/05 10:43:22;;;;;;;;;;;26.00;45.30;;;;;;20829514;28;19925;-55
2023/06/05 10:53:42;;;;;;;;;;;26.10;45.20;;;;;;20830503;28;19975;-56
2023/06/05 11:03:58;;;;;;;;;;;25.80;47.00;;;;;;20828010;28;19932;-56
2023/06/05 11:13:59;;;;;;;;;;;26.10;44.30;;;;;;20826923;28;19972;-58
2023/06/05 11:24:18;;;;;;;;;;;26.60;43.30;;;;;;20828851;28;20377;-57
2023/06/05 11:34:19;;;;;;;;;;;26.40;43.30;;;;;;20831653;28;20234;-56
2023/06/05 11:44:32;;;;;;;;;;;26.80;41.40;;;;;;20841482;28;19935;-56
2023/06/05 11:54:40;;;;;;;;;;;26.90;39.30;;;;;;20840713;28;19951;-57
2023/06/05 12:04:41;;;;;;;;;;;27.00;37.20;;;;;;20840701;28;20350;-57
2023/06/05 12:14:42;;;;;;;;;;;27.30;37.60;;;;;;20838650;28;20017;-56
2023/06/05 12:24:43;;;;;;;;;;;26.70;37.20;;;;;;20836960;28;19951;-56
2023/06/05 12:34:50;;;;;;;;;;;26.70;39.60;;;;;;20836432;28;19973;-56
2023/06/05 12:44:50;;;;;;;;;;;27.10;38.00;;;;;;20835249;28;19932;-56
2023/06/05 12:54:52;;;;;;;;;;;27.50;36.50;;;;;;20834995;28;19925;-56
2023/06/05 13:04:52;;;;;;;;;;;27.80;34.00;;;;;;20834001;28;19925;-57
2023/06/05 13:14:53;;;;;;;;;;;28.10;33.00;;;;;;20833260;28;19925;-55
2023/06/05 13:24:54;;;;;;;;;;;28.30;33.30;;;;;;20832523;28;19972;-57
2023/06/05 13:34:55;;;;;;;;;;;28.50;32.80;;;;;;20831704;28;20355;-56
2023/06/05 13:44:55;;;;;;;;;;;28.20;32.90;;;;;;20829398;28;19925;-56
2023/06/05 13:54:56;;;;;;;;;;;28.10;32.70;;;;;;20829885;28;19932;-56
2023/06/05 14:04:57;;;;;;;;;;;27.90;35.20;;;;;;20829785;28;20379;-58
2023/06/05 14:14:58;;;;;;;;;;;27.90;36.90;;;;;;20828481;28;19925;-57
2023/06/05 14:24:59;;;;;;;;;;;27.60;38.50;;;;;;20827785;28;20390;-57
2023/06/05 14:35:00;;;;;;;;;;;27.30;39.20;;;;;;20828905;28;19925;-56
2023/06/05 14:45:02;;;;;;;;;;;27.10;39.90;;;;;;20828333;28;19932;-54
2023/06/05 14:55:03;;;;;;;;;;;26.90;38.90;;;;;;20829782;28;19925;-57
2023/06/05 15:05:03;;;;;;;;;;;26.50;38.90;;;;;;20829069;28;20023;-56
2023/06/05 15:15:06;;;;;;;;;;;26.30;40.10;;;;;;20841691;28;19991;-56
2023/06/05 15:25:06;;;;;;;;;;;26.10;43.50;;;;;;20843079;28;19925;-55
2023/06/05 15:35:07;;;;;;;;;;;25.60;47.40;;;;;;20843440;28;19972;-57
2023/06/05 15:45:15;;;;;;;;;;;25.50;46.70;;;;;;20841804;28;19925;-56
2023/06/05 15:55:15;;;;;;;;;;;25.60;48.00;;;;;;20841125;28;20005;-57
2023/06/05 16:05:16;;;;;;;;;;;25.70;46.70;;;;;;20840826;28;19925;-57
2023/06/05 16:15:17;;;;;;;;;;;25.60;53.40;;;;;;20839824;28;19932;-58
2023/06/05 16:25:17;;;;;;;;;;;25.50;54.50;;;;;;20837120;28;19925;-57
2023/06/05 16:35:19;;;;;;;;;;;25.20;53.00;;;;;;20838397;28;19936;-56
2023/06/05 16:45:20;;;;;;;;;;;25.00;52.80;;;;;;20836953;28;19979;-56
2023/06/05 16:55:21;;;;;;;;;;;24.40;53.50;;;;;;20856746;28;19925;-57
2023/06/05 17:05:21;;;;;;;;;;;23.70;56.40;;;;;;20870620;28;19925;-57
2023/06/05 17:15:22;;;;;;;;;;;23.90;56.30;;;;;;20843575;28;19929;-62
2023/06/05 17:25:22;;;;;;;;;;;24.10;54.30;;;;;;20888236;28;19968;-58
2023/06/05 17:35:23;;;;;;;;;;;24.20;53.90;;;;;;20866200;28;19925;-57
2023/06/05 17:45:23;;;;;;;;;;;24.30;52.40;;;;;;20835673;28;19925;-56
2023/06/05 17:55:26;;;;;;;;;;;24.30;51.90;;;;;;20852672;28;20466;-60
2023/06/05 18:05:27;;;;;;;;;;;24.00;49.20;;;;;;20878571;28;19980;-59
2023/06/05 18:15:27;;;;;;;;;;;23.60;53.60;;;;;;20886605;28;19929;-56
2023/06/05 18:25:28;;;;;;;;;;;23.40;56.80;;;;;;20909312;28;19979;-57
2023/06/05 18:35:29;;;;;;;;;;;23.40;56.60;;;;;;20911021;28;19928;-56
2023/06/05 18:45:29;;;;;;;;;;;23.20;57.40;;;;;;20919741;28;20413;-57
2023/06/05 18:55:30;;;;;;;;;;;22.90;58.00;;;;;;20928308;28;19929;-52
2023/06/05 19:05:31;;;;;;;;;;;22.80;58.50;;;;;;20928655;28;19924;-55
2023/06/05 19:15:31;;;;;;;;;;;22.60;59.50;;;;;;20925518;28;19924;-54
2023/06/05 19:25:32;;;;;;;;;;;22.40;59.60;;;;;;20922870;28;19924;-55
2023/06/05 19:35:33;;;;;;;;;;;22.20;59.20;;;;;;20923028;28;19925;-54
2023/06/05 19:45:33;;;;;;;;;;;22.20;57.80;;;;;;20922493;28;19931;-53
2023/06/05 19:55:34;;;;;;;;;;;21.90;58.10;;;;;;20922163;28;20338;-54
2023/06/05 20:05:35;;;;;;;;;;;21.70;58.60;;;;;;20923390;28;20002;-54
2023/06/05 20:15:36;;;;;;;;;;;21.70;58.60;;;;;;20922420;28;20389;-54
2023/06/05 20:25:37;;;;;;;;;;;21.60;58.90;;;;;;20922803;28;19925;-55
2023/06/05 20:35:41;;;;;;;;;;;21.60;58.50;;;;;;20921342;28;20389;-54
2023/06/05 20:45:43;;;;;;;;;;;21.50;58.70;;;;;;20918374;28;19996;-55
2023/06/05 20:55:44;;;;;;;;;;;21.50;59.00;;;;;;20918535;28;20430;-57
2023/06/05 21:05:44;;;;;;;;;;;21.40;58.80;;;;;;20917499;28;20045;-55
2023/06/05 21:15:45;;;;;;;;;;;21.50;58.70;;;;;;20917212;28;20397;-54
2023/06/05 21:25:46;;;;;;;;;;;21.40;58.70;;;;;;20916299;28;19925;-56
2023/06/05 21:35:46;;;;;;;;;;;21.40;58.30;;;;;;20917616;28;19945;-55
2023/06/05 21:45:47;;;;;;;;;;;21.30;58.50;;;;;;20914757;28;19932;-54
2023/06/05 21:55:49;;;;;;;;;;;21.30;58.70;;;;;;20914383;28;20309;-54
2023/06/05 22:05:51;;;;;;;;;;;21.20;58.80;;;;;;20915893;28;19932;-55
2023/06/05 22:15:52;;;;;;;;;;;21.20;59.30;;;;;;20913865;28;20387;-54
2023/06/05 22:25:52;;;;;;;;;;;21.20;59.40;;;;;;20912993;28;19925;-54
2023/06/05 22:35:53;;;;;;;;;;;21.10;59.40;;;;;;20914376;28;19955;-54
2023/06/05 22:45:55;;;;;;;;;;;21.10;59.70;;;;;;20913872;28;19968;-54
2023/06/05 22:55:55;;;;;;;;;;;20.90;60.40;;;;;;20912015;28;19933;-54
2023/06/05 23:05:57;;;;;;;;;;;20.80;61.20;;;;;;20911923;28;20127;-54
2023/06/05 23:15:59;;;;;;;;;;;20.60;62.70;;;;;;20911656;28;20008;-53
2023/06/05 23:25:59;;;;;;;;;;;20.50;63.60;;;;;;20911293;28;19928;-53
2023/06/05 23:36:00;;;;;;;;;;;20.40;63.90;;;;;;20924673;28;19982;-53
2023/06/05 23:46:00;;;;;;;;;;;20.30;64.40;;;;;;20927050;28;19929;-54
2023/06/05 23:56:01;;;;;;;;;;;20.40;64.00;;;;;;20926029;28;19931;-53
